Mesa.AZweather.com - Mesa, AZ
   Red Mountain Frwy and University Dr., El 1518 ft.
       --- Saturday  Sep. 8, 2018 ---
 
 High Temperature ..  107F at 14:03
 Low Temperature ...  74F at 05:34
 
 High Humidity .....  46% at 06:38
 Low Humidity ......  15% at 17:13
 
 Rainfall Total ....  0.00 in.
 
 High Wind Speed ...  16 MPH at 12:18
                      from  160
 
 High Barometer ....  29.94 at 08:45
 Low Barometer .....  29.76 at 17:39
 
Dew Point    High .... 59   Low ..... 47
 
 
 Time   Temp  Humi  Rain     Baro  DewPt  Wind
00:00,  82F, 32%, 0.00 in, 29.89, 50F, NW-4 MPH
00:30,  82F, 32%, 0.00 in, 29.89, 50F, SE-1 MPH
01:00,  81F, 33%, 0.00 in, 29.90, 49F, SE-4 MPH
01:30,  81F, 34%, 0.00 in, 29.89, 50F, SE-2 MPH
02:00,  80F, 34%, 0.00 in, 29.89, 50F, SE-0 MPH
02:30,  79F, 35%, 0.00 in, 29.89, 49F, SE-0 MPH
03:00,  79F, 35%, 0.00 in, 29.89, 49F, SE-0 MPH
03:30,  78F, 37%, 0.00 in, 29.89, 50F, SE-1 MPH
04:00,  77F, 38%, 0.00 in, 29.89, 49F, SE-1 MPH
04:30,  76F, 39%, 0.00 in, 29.89, 49F, SE-0 MPH
05:00,  75F, 40%, 0.00 in, 29.89, 49F, SE-1 MPH
05:30,  75F, 41%, 0.00 in, 29.90, 50F, SE-1 MPH
06:00,  74F, 43%, 0.00 in, 29.91, 50F, SE-1 MPH
06:30,  74F, 45%, 0.00 in, 29.91, 51F, SE-0 MPH
07:00,  75F, 46%, 0.00 in, 29.92, 53F, E-4 MPH
07:30,  80F, 42%, 0.00 in, 29.92, 55F, E-4 MPH
08:00,  86F, 37%, 0.00 in, 29.92, 57F, ESE-4 MPH
08:30,  91F, 33%, 0.00 in, 29.93, 58F, ENE-7 MPH
09:00,  94F, 29%, 0.00 in, 29.93, 56F, ESE-6 MPH
09:30,  97F, 27%, 0.00 in, 29.93, 57F, ESE-10 MPH
10:00,  97F, 26%, 0.00 in, 29.93, 56F, SE-10 MPH
10:30,  99F, 25%, 0.00 in, 29.92, 57F, SE-9 MPH
11:00,  100F, 23%, 0.00 in, 29.92, 56F, SE-7 MPH
11:30,  101F, 22%, 0.00 in, 29.91, 55F, S-13 MPH
12:00,  103F, 21%, 0.00 in, 29.90, 55F, S-10 MPH
12:30,  104F, 21%, 0.00 in, 29.90, 56F, SSE-4 MPH
13:00,  104F, 20%, 0.00 in, 29.88, 55F, SW-4 MPH
13:30,  105F, 20%, 0.00 in, 29.86, 56F, SSE-2 MPH
14:00,  106F, 18%, 0.00 in, 29.85, 54F, SW-9 MPH
14:30,  107F, 18%, 0.00 in, 29.83, 55F, SE-2 MPH
15:00,  106F, 17%, 0.00 in, 29.81, 52F, WSW-9 MPH
15:30,  105F, 17%, 0.00 in, 29.80, 52F, NW-1 MPH
16:00,  106F, 17%, 0.00 in, 29.80, 52F, NW-7 MPH
16:30,  106F, 17%, 0.00 in, 29.78, 52F, S-6 MPH
17:00,  105F, 16%, 0.00 in, 29.77, 50F, NW-4 MPH
17:30,  104F, 15%, 0.00 in, 29.77, 47F, NW-4 MPH
18:00,  104F, 15%, 0.00 in, 29.77, 47F, NW-2 MPH
18:30,  102F, 16%, 0.00 in, 29.76, 48F, NW-6 MPH
19:00,  99F, 18%, 0.00 in, 29.77, 48F, NW-1 MPH
19:30,  97F, 19%, 0.00 in, 29.77, 48F, NW-0 MPH
20:00,  93F, 23%, 0.00 in, 29.78, 50F, NW-0 MPH
20:30,  90F, 25%, 0.00 in, 29.79, 49F, NW-0 MPH
21:00,  88F, 28%, 0.00 in, 29.79, 51F, NW-0 MPH
21:30,  86F, 29%, 0.00 in, 29.80, 50F, NW-0 MPH
22:00,  85F, 30%, 0.00 in, 29.79, 49F, NW-0 MPH
22:30,  84F, 30%, 0.00 in, 29.80, 49F, NW-1 MPH
23:00,  84F, 31%, 0.00 in, 29.80, 50F, NW-2 MPH
23:30,  83F, 30%, 0.00 in, 29.80, 48F, NW-2 MPH
23:59,  83F, 30%, 0.00 in, 29.81, 48F, NW-0 MPH